A- A+ FrançaisEnglishEspañol中国

le plus proche LFBT Tarbes-Lourdes-PyrénéesLFBD Bordeaux-MerignacLFBO Toulouse-BlagnacLFCL Toulouse-Lasbordes

manche à air

La météo aéronautique pour les pilotes, la préparation du vol avec les METAR (METeorological Aerodrome Report, message d'observation des conditions météorologiques pour l'aviation) et Les TAF (Terminal Aerodrome Forecast : message de prévision à court terme des conditions météorologiques pour l'aviation). Et les autres ressources comme les VAC (Visual Approch Chart) et les NOTAM (Notice To Airman) pour préprer les vols.

Aéroport Billund (Danemark) / OACI EKBI/ IATA BLL

L'altitude de l'aéroport Billund est de 75 m=246 ft. Il est situé à proximité de Billund (Danemark). La météo générale à 5 jours est disponible pour Give situé à 12.7 km.

METAR de l'aéroport Billund - EKBI

EKBI 200850Z AUTO 07001KT 9999 OVC043/// 04/03 Q1020

Décodage du METAR de l'aéroport Billund (DK)

METAR émis par EKBI le mercredi 20 novembre 2019 à 08:50 heure TU. C'est un METAR généré automatiquement. Attention ce METAR est obsolète car il a été émis il y a 5 heure et 22 minutes.

La visibilité est de supérieure à 10 km=supérieure à 6.2 sm.

La température est de 4°C=39 °F et le point rosée est de 3°C=37 °F . Ce qui correspond à 93% d'humidité relative.

Le QNH est de 1020 hPa=30.12 inHg

Vent de 1 kt=2 km/h, orienté à 70°.

Nuages : Couverture nuageuse soudée à 4300 ft=1310 mètres.

TAF de l'aéroport Billund - EKBI

EKBI 200517Z 2006/2106 VRB02KT 9999 BKN040 BECMG 2019/2021 2000 -RADZ BR BKN004 TEMPO 2021/2102 6000 RADZ SCT004 BKN010 BECMG 2100/2102 15010KT TEMPO 2102/2106 1200 BKN001

EKBI 200517Z 2006/2106 VRB02KT 9999 couverture nuageuse fragmentée à 040 devenant 2019/2021 2000 faible RADZ brume couverture nuageuse fragmentée à 004 temporairement 2021/2102 6000 pluie DZ nuages épars à 004 couverture nuageuse fragmentée à 010 devenant 2100/2102 15010KT temporairement 2102/2106 1200 couverture nuageuse fragmentée à 001

Aéroport à proximité de Billund

Météo générale à 5 jours à Give (12.7 km)EKVD Aéroport Kolding Vamdrup (36 km)EKEB Aéroport Esbjerg (44 km)EKHG Aéroport Herning Skinderholm (50 km)EKHV Aéroport Haderslev (54 km)EKSD Aéroport Spjald (57 km)EKVJ Aéroport Stauning (57 km)

VAC de l'aéroport Billund - EKBI

La carte d'approche à vue (VAC Visual Approah Chart) est fournie sans aucune garantie de son actualité. Le pilote est le seul responsable de la vérification de sa validité avant de l'utiliser opérationnellement pour préparer un vol ou l'utiliser lors de sa navigation.

VAC de EKBI

Vue aérienne de l'aéroport Billund

NOTAM de l'aéroport Billund

Les NOTAM sont fournis sans aucune garantie de leur actualité. Le pilote est le seul responsable de la vérification de sa validité avant de l'utiliser opérationnellement pour préparer un vol ou l'utiliser lors de sa navigation.

Pas de NOTAM

Sources des données